Time;durP1;ratioP1;P1;durP2;ratioP2;P2;SDS_P1;SDS_P2;PMS_P1;PMS_P2;Temp;Humidity;BMP_temperature;BMP_pressure;BME280_temperature;BME280_humidity;BME280_pressure;Samples;Min_cycle;Max_cycle;Signal;HPM_P1;HPM_P2
2022/08/11 00:01:25;;;;;;;;;;;16.80;99.90;;;;;;5008775;28;19921;-86
2022/08/11 00:03:54;;;;;;;;;;;16.80;99.90;;;;;;4993735;28;20299;-86
2022/08/11 00:06:28;;;;;;;;;;;16.80;99.90;;;;;;4986328;28;1188624;-85
2022/08/11 00:08:54;;;;;;;;;;;16.80;99.90;;;;;;4993495;28;20004;-85
2022/08/11 00:11:20;;;;;;;;;;;16.70;99.90;;;;;;5009334;28;19972;-87
2022/08/11 00:13:47;;;;;;;;;;;16.70;99.90;;;;;;5029789;28;19921;-86
2022/08/11 00:16:15;;;;;;;;;;;16.70;99.90;;;;;;5028725;28;19925;-86
2022/08/11 00:18:45;;;;;;;;;;;16.70;99.90;;;;;;4992889;28;19921;-86
2022/08/11 00:21:12;;;;;;;;;;;16.60;99.90;;;;;;5006664;28;19982;-86
2022/08/11 00:23:42;;;;;;;;;;;16.60;99.90;;;;;;5007052;28;20656;-86
2022/08/11 00:26:07;;;;;;;;;;;16.60;99.90;;;;;;4996011;28;20330;-86
2022/08/11 00:28:34;;;;;;;;;;;16.60;99.90;;;;;;5006753;28;20008;-86
2022/08/11 00:31:23;;;;;;;;;;;16.50;99.90;;;;;;5026555;28;20298;-86
2022/08/11 00:33:49;;;;;;;;;;;16.50;99.90;;;;;;5001536;28;20064;-86
2022/08/11 00:36:16;;;;;;;;;;;16.50;99.90;;;;;;4993912;28;20015;-86
2022/08/11 00:38:43;;;;;;;;;;;16.50;99.90;;;;;;5012246;28;19925;-86
2022/08/11 00:41:19;;;;;;;;;;;16.40;99.90;;;;;;4994426;28;19931;-86
2022/08/11 00:44:03;;;;;;;;;;;16.40;99.90;;;;;;4993664;28;19928;-85
2022/08/11 00:46:36;;;;;;;;;;;16.40;99.90;;;;;;5010066;28;19933;-86
2022/08/11 00:49:15;;;;;;;;;;;16.30;99.90;;;;;;5011111;28;19925;-86
2022/08/11 00:52:00;;;;;;;;;;;16.30;99.90;;;;;;5008681;28;19921;-86
2022/08/11 00:54:37;;;;;;;;;;;16.20;99.90;;;;;;5012392;28;19921;-86
2022/08/11 00:57:09;;;;;;;;;;;16.20;99.90;;;;;;5027523;28;19925;-86
2022/08/11 00:59:44;;;;;;;;;;;16.20;99.90;;;;;;5011866;28;20325;-86
2022/08/11 01:02:17;;;;;;;;;;;16.20;99.90;;;;;;5010371;28;19929;-86
2022/08/11 01:04:58;;;;;;;;;;;16.20;99.90;;;;;;4994648;28;20352;-86
2022/08/11 01:07:43;;;;;;;;;;;16.10;99.90;;;;;;5011882;28;20015;-86
2022/08/11 01:10:14;;;;;;;;;;;16.10;99.90;;;;;;5011282;28;19921;-86
2022/08/11 01:12:59;;;;;;;;;;;16.00;99.90;;;;;;5010204;28;20396;-87
2022/08/11 01:15:38;;;;;;;;;;;15.90;99.90;;;;;;5009937;28;20288;-86
2022/08/11 01:18:16;;;;;;;;;;;15.90;99.90;;;;;;5028915;28;20287;-86
2022/08/11 01:20:57;;;;;;;;;;;15.90;99.90;;;;;;5013151;28;19925;-86
2022/08/11 01:23:54;;;;;;;;;;;15.80;99.90;;;;;;5009591;28;19967;-86
2022/08/11 01:26:29;;;;;;;;;;;15.80;99.90;;;;;;5008932;28;20370;-85
2022/08/11 01:28:54;;;;;;;;;;;15.80;99.90;;;;;;5025444;28;19928;-86
2022/08/11 01:31:44;;;;;;;;;;;15.80;99.90;;;;;;5026755;28;19925;-86
2022/08/11 01:34:48;;;;;;;;;;;15.70;99.90;;;;;;5005709;28;19925;-85
2022/08/11 01:37:19;;;;;;;;;;;15.70;99.90;;;;;;4955553;28;19932;-85
2022/08/11 01:39:55;;;;;;;;;;;15.70;99.90;;;;;;4936786;28;19926;-85
2022/08/11 01:45:27;;;;;;;;;;;15.60;99.90;;;;;;5007580;28;19961;-86
2022/08/11 01:47:53;;;;;;;;;;;15.50;99.90;;;;;;5003562;28;20412;-86
2022/08/11 01:50:41;;;;;;;;;;;15.50;99.90;;;;;;5004090;28;19924;-85
2022/08/11 01:53:26;;;;;;;;;;;15.40;99.90;;;;;;5004467;28;20025;-85
2022/08/11 01:56:10;;;;;;;;;;;15.40;99.90;;;;;;5004544;28;19960;-85
2022/08/11 01:58:59;;;;;;;;;;;15.40;99.90;;;;;;4986004;28;20032;-85
2022/08/11 02:01:24;;;;;;;;;;;15.40;99.90;;;;;;5002352;28;19925;-85
2022/08/11 02:03:53;;;;;;;;;;;15.40;99.90;;;;;;4986667;28;20310;-85
2022/08/11 02:09:19;;;;;;;;;;;15.30;99.90;;;;;;5008164;28;19927;-86
2022/08/11 02:11:46;;;;;;;;;;;15.30;99.90;;;;;;5005757;28;19932;-85
2022/08/11 02:14:32;;;;;;;;;;;15.20;99.90;;;;;;5003676;28;19932;-85
2022/08/11 02:17:03;;;;;;;;;;;15.10;99.90;;;;;;4983562;28;19921;-84
2022/08/11 02:25:34;;;;;;;;;;;15.00;99.90;;;;;;5033972;28;20392;-85
2022/08/11 02:28:11;;;;;;;;;;;15.00;99.90;;;;;;4990753;28;19936;-86
2022/08/11 02:33:21;;;;;;;;;;;14.90;99.90;;;;;;5021630;28;19991;-85
2022/08/11 02:33:35;;;;;;;;;;;14.90;99.90;;;;;;5006312;28;19929;-86
2022/08/11 02:36:18;;;;;;;;;;;14.80;99.90;;;;;;5005438;28;20337;-85
2022/08/11 02:38:54;;;;;;;;;;;14.80;99.90;;;;;;5005801;28;19925;-86
2022/08/11 02:44:24;;;;;;;;;;;14.70;99.90;;;;;;5002511;28;19921;-86
2022/08/11 02:47:13;;;;;;;;;;;14.70;99.90;;;;;;5024045;28;19944;-85
2022/08/11 02:49:54;;;;;;;;;;;14.70;99.90;;;;;;4997752;28;20402;-85
2022/08/11 02:52:23;;;;;;;;;;;14.70;99.90;;;;;;5004131;28;19928;-86
2022/08/11 02:55:09;;;;;;;;;;;14.60;99.90;;;;;;5002686;28;19928;-86
2022/08/11 02:58:02;;;;;;;;;;;14.60;99.90;;;;;;5003377;28;19999;-86
2022/08/11 03:00:29;;;;;;;;;;;14.60;99.90;;;;;;5017041;28;19929;-86
2022/08/11 03:03:16;;;;;;;;;;;14.60;99.90;;;;;;5003075;28;21177;-86
2022/08/11 03:05:46;;;;;;;;;;;14.60;99.90;;;;;;5010594;28;20382;-86
2022/08/11 03:08:24;;;;;;;;;;;14.60;99.90;;;;;;5013026;28;19925;-86
2022/08/11 03:16:46;;;;;;;;;;;14.50;99.90;;;;;;5027605;28;20011;-85
2022/08/11 03:19:31;;;;;;;;;;;14.50;99.90;;;;;;5011936;28;19921;-86
2022/08/11 03:21:59;;;;;;;;;;;14.50;99.90;;;;;;4996206;28;20333;-86
2022/08/11 03:24:34;;;;;;;;;;;14.50;99.90;;;;;;5027649;28;19921;-85
2022/08/11 03:27:00;;;;;;;;;;;14.50;99.90;;;;;;5030845;28;19921;-85
2022/08/11 03:29:39;;;;;;;;;;;14.40;99.90;;;;;;5029825;28;20012;-86
2022/08/11 03:32:25;;;;;;;;;;;14.40;99.90;;;;;;5011080;28;20078;-86
2022/08/11 03:34:55;;;;;;;;;;;14.40;99.90;;;;;;5012893;28;19928;-85
2022/08/11 03:37:49;;;;;;;;;;;14.40;99.90;;;;;;4997242;28;19928;-85
2022/08/11 03:43:12;;;;;;;;;;;14.30;99.90;;;;;;5028710;28;19971;-85
2022/08/11 03:45:40;;;;;;;;;;;14.30;99.90;;;;;;4994317;28;19960;-86
2022/08/11 03:48:30;;;;;;;;;;;14.30;99.90;;;;;;5030467;28;21544;-86
2022/08/11 03:51:08;;;;;;;;;;;14.20;99.90;;;;;;5026411;28;19952;-86
2022/08/11 03:53:44;;;;;;;;;;;14.20;99.90;;;;;;5009740;28;20321;-86
2022/08/11 03:56:10;;;;;;;;;;;14.20;99.90;;;;;;5012216;28;19928;-85
2022/08/11 03:58:59;;;;;;;;;;;14.20;99.90;;;;;;5011336;28;19928;-86
2022/08/11 04:01:28;;;;;;;;;;;14.20;99.90;;;;;;4999767;28;20504;-86
2022/08/11 04:04:03;;;;;;;;;;;14.20;99.90;;;;;;4995822;28;20008;-86
2022/08/11 04:06:34;;;;;;;;;;;14.20;99.90;;;;;;5027420;28;20022;-87
2022/08/11 04:09:19;;;;;;;;;;;14.10;99.90;;;;;;5009047;28;20382;-85
2022/08/11 04:11:56;;;;;;;;;;;14.10;99.90;;;;;;5011895;28;19978;-87
2022/08/11 04:17:34;;;;;;;;;;;14.00;99.90;;;;;;5026267;28;19975;-86
2022/08/11 04:20:15;;;;;;;;;;;14.00;99.90;;;;;;5009731;28;19956;-86
2022/08/11 04:22:50;;;;;;;;;;;14.00;99.90;;;;;;5008259;28;19932;-87
2022/08/11 04:25:22;;;;;;;;;;;14.00;99.90;;;;;;5008855;28;20048;-87
2022/08/11 04:27:51;;;;;;;;;;;14.00;99.90;;;;;;5010633;28;19921;-87
2022/08/11 04:30:25;;;;;;;;;;;14.00;99.90;;;;;;4995417;28;20327;-87
2022/08/11 04:32:57;;;;;;;;;;;14.00;99.90;;;;;;4995972;28;20329;-87
2022/08/11 04:35:45;;;;;;;;;;;14.00;99.90;;;;;;4994251;28;20376;-87
2022/08/11 04:38:23;;;;;;;;;;;14.00;99.90;;;;;;5008663;28;19921;-87
2022/08/11 04:41:15;;;;;;;;;;;13.90;99.90;;;;;;5012398;28;19925;-87
2022/08/11 04:43:40;;;;;;;;;;;13.90;99.90;;;;;;5030370;28;20297;-88
2022/08/11 04:46:17;;;;;;;;;;;14.00;99.90;;;;;;5021036;28;19920;-87
2022/08/11 05:03:39;;;;;;;;;;;15.70;99.90;;;;;;5010413;28;19966;-88
2022/08/11 05:06:27;;;;;;;;;;;15.60;99.90;;;;;;5011119;28;20286;-87
2022/08/11 05:09:01;;;;;;;;;;;15.70;99.90;;;;;;5028597;28;20382;-88
2022/08/11 05:11:27;;;;;;;;;;;16.30;99.90;;;;;;5026942;28;19967;-88
2022/08/11 05:36:46;;;;;;;;;;;18.30;99.90;;;;;;5010051;28;20019;-87
2022/08/11 05:58:34;;;;;;;;;;;17.30;99.90;;;;;;5012530;28;19983;-87
2022/08/11 06:01:00;;;;;;;;;;;17.30;99.90;;;;;;5024363;28;20330;-86
2022/08/11 06:03:26;;;;;;;;;;;17.30;99.90;;;;;;5003361;28;19996;-86
2022/08/11 06:05:52;;;;;;;;;;;17.30;99.90;;;;;;4992774;28;19921;-86
2022/08/11 06:08:26;;;;;;;;;;;17.50;99.90;;;;;;5008013;28;20397;-86
2022/08/11 06:10:58;;;;;;;;;;;17.50;99.90;;;;;;5012990;28;20079;-86
2022/08/11 06:13:24;;;;;;;;;;;17.50;99.90;;;;;;4995694;28;19979;-85
2022/08/11 06:15:54;;;;;;;;;;;17.50;99.90;;;;;;5006236;28;19968;-85
2022/08/11 06:18:21;;;;;;;;;;;17.60;99.90;;;;;;5010953;28;20348;-84
2022/08/11 06:20:48;;;;;;;;;;;17.70;99.90;;;;;;5010548;28;20404;-85
2022/08/11 06:23:16;;;;;;;;;;;17.70;99.90;;;;;;5008525;28;19925;-83
2022/08/11 06:25:42;;;;;;;;;;;17.80;99.90;;;;;;5011883;28;19921;-84
2022/08/11 06:28:08;;;;;;;;;;;17.80;99.90;;;;;;5009240;28;19924;-87
2022/08/11 06:30:34;;;;;;;;;;;17.90;99.90;;;;;;5013736;28;19963;-86
2022/08/11 06:33:00;;;;;;;;;;;18.00;99.90;;;;;;4992884;28;20295;-86
2022/08/11 06:35:47;;;;;;;;;;;18.00;99.90;;;;;;5005850;28;19921;-84
2022/08/11 06:38:14;;;;;;;;;;;18.20;99.90;;;;;;5021881;28;19948;-84
2022/08/11 06:43:44;;;;;;;;;;;19.40;99.90;;;;;;5027687;28;19948;-85
2022/08/11 06:46:12;;;;;;;;;;;19.30;99.90;;;;;;5025554;28;19924;-85
2022/08/11 06:48:38;;;;;;;;;;;19.20;99.90;;;;;;5001402;28;19925;-85
2022/08/11 06:51:12;;;;;;;;;;;19.20;99.90;;;;;;5008383;28;19948;-84
2022/08/11 06:53:59;;;;;;;;;;;19.10;99.90;;;;;;5010449;28;19951;-85
2022/08/11 07:02:21;;;;;;;;;;;19.10;99.90;;;;;;5026362;28;19929;-82
2022/08/11 07:05:03;;;;;;;;;;;19.10;99.90;;;;;;5009596;28;20123;-85
2022/08/11 07:16:13;;;;;;;;;;;19.30;99.90;;;;;;5011363;28;19928;-83
2022/08/11 07:29:44;;;;;;;;;;;19.90;99.90;;;;;;5005641;28;19940;-80
2022/08/11 07:32:13;;;;;;;;;;;20.20;99.90;;;;;;5024270;28;20036;-82
2022/08/11 07:34:42;;;;;;;;;;;20.40;99.90;;;;;;4996402;28;19925;-81
2022/08/11 07:37:11;;;;;;;;;;;20.70;99.90;;;;;;5012461;28;20056;-80
2022/08/11 07:39:37;;;;;;;;;;;21.00;99.90;;;;;;5008131;28;19928;-80
2022/08/11 07:42:06;;;;;;;;;;;21.30;99.90;;;;;;5004575;28;19963;-80
2022/08/11 07:48:10;;;;;;;;;;;21.70;99.90;;;;;;5008126;28;19921;-83
2022/08/11 07:52:52;;;;;;;;;;;23.30;99.90;;;;;;5009318;28;19925;-79
2022/08/11 07:55:19;;;;;;;;;;;23.90;99.90;;;;;;5004630;28;19925;-80
2022/08/11 08:19:47;;;;;;;;;;;26.60;99.90;;;;;;5027105;28;19931;-82
2022/08/11 08:22:17;;;;;;;;;;;26.70;99.90;;;;;;5003808;28;20287;-83
2022/08/11 08:24:43;;;;;;;;;;;26.90;99.90;;;;;;5008751;28;19983;-84
2022/08/11 08:27:11;;;;;;;;;;;27.10;99.90;;;;;;5004273;28;19932;-83
2022/08/11 08:32:21;;;;;;;;;;;27.50;99.90;;;;;;5020661;28;19936;-81
2022/08/11 08:34:50;;;;;;;;;;;27.70;99.90;;;;;;5006986;28;19947;-83
2022/08/11 08:37:20;;;;;;;;;;;27.80;99.90;;;;;;5006207;28;19924;-83
2022/08/11 08:39:46;;;;;;;;;;;27.90;99.90;;;;;;5021933;28;19920;-83
2022/08/11 08:42:13;;;;;;;;;;;28.10;99.90;;;;;;5023845;28;20444;-83
2022/08/11 08:44:40;;;;;;;;;;;28.30;99.90;;;;;;5017335;28;19960;-85
2022/08/11 08:47:06;;;;;;;;;;;28.40;99.90;;;;;;5023586;28;19928;-83
2022/08/11 08:49:33;;;;;;;;;;;28.60;99.90;;;;;;5008938;28;19967;-83
2022/08/11 08:52:01;;;;;;;;;;;28.70;99.90;;;;;;5024304;28;19924;-83
2022/08/11 08:54:32;;;;;;;;;;;28.70;99.90;;;;;;5022882;28;20016;-81
2022/08/11 08:57:01;;;;;;;;;;;28.60;99.90;;;;;;4988914;28;19922;-84
2022/08/11 08:59:27;;;;;;;;;;;28.70;99.90;;;;;;5007255;28;20040;-84
2022/08/11 09:01:57;;;;;;;;;;;28.80;99.90;;;;;;5008428;28;20004;-84
2022/08/11 09:04:24;;;;;;;;;;;28.90;99.90;;;;;;5004146;28;20301;-84
2022/08/11 09:06:50;;;;;;;;;;;29.00;99.90;;;;;;5018980;28;20131;-83
2022/08/11 09:09:16;;;;;;;;;;;29.10;99.90;;;;;;4988880;28;19921;-84
2022/08/11 09:11:54;;;;;;;;;;;29.20;99.90;;;;;;4987123;28;20398;-80
2022/08/11 09:17:30;;;;;;;;;;;29.30;99.00;;;;;;5008141;28;20023;-84
2022/08/11 09:20:08;;;;;;;;;;;29.50;99.90;;;;;;5023006;28;19922;-84
2022/08/11 09:28:08;;;;;;;;;;;30.10;98.60;;;;;;5007791;28;19921;-83
2022/08/11 09:30:34;;;;;;;;;;;30.30;98.70;;;;;;5026060;28;19951;-83
2022/08/11 09:33:01;;;;;;;;;;;30.50;98.40;;;;;;5009715;28;19921;-83
2022/08/11 09:35:28;;;;;;;;;;;30.60;97.60;;;;;;5011203;28;19928;-83
2022/08/11 09:40:43;;;;;;;;;;;30.90;95.80;;;;;;5005562;28;19967;-83
2022/08/11 09:45:54;;;;;;;;;;;31.00;93.80;;;;;;5020314;28;19925;-83
2022/08/11 09:48:21;;;;;;;;;;;30.90;92.10;;;;;;5009481;28;19971;-84
2022/08/11 09:50:48;;;;;;;;;;;30.90;92.10;;;;;;4983140;28;19921;-83
2022/08/11 09:53:14;;;;;;;;;;;31.00;93.00;;;;;;5018622;28;19952;-81
2022/08/11 09:55:40;;;;;;;;;;;31.10;91.40;;;;;;5009557;28;19925;-82
2022/08/11 09:58:12;;;;;;;;;;;31.20;90.80;;;;;;5023665;28;20297;-84
2022/08/11 10:00:41;;;;;;;;;;;31.30;90.40;;;;;;5002052;28;19920;-81
2022/08/11 10:03:10;;;;;;;;;;;31.40;87.90;;;;;;5019705;28;20025;-83
2022/08/11 10:08:25;;;;;;;;;;;31.40;89.20;;;;;;5020293;28;19968;-82
2022/08/11 10:10:52;;;;;;;;;;;31.40;87.10;;;;;;5023614;28;19921;-83
2022/08/11 10:13:24;;;;;;;;;;;31.50;86.20;;;;;;5020562;28;19920;-82
2022/08/11 10:15:52;;;;;;;;;;;31.60;84.90;;;;;;5002954;28;20287;-82
2022/08/11 10:18:41;;;;;;;;;;;31.60;78.00;;;;;;5006639;28;19928;-82
2022/08/11 10:21:15;;;;;;;;;;;31.60;79.40;;;;;;5029439;28;19975;-82
2022/08/11 10:34:42;;;;;;;;;;;31.30;76.30;;;;;;5000753;28;20290;-81
2022/08/11 10:37:08;;;;;;;;;;;31.40;78.00;;;;;;5026918;28;20850;-82
2022/08/11 10:39:34;;;;;;;;;;;31.40;77.00;;;;;;5014289;28;19952;-81
2022/08/11 10:44:45;;;;;;;;;;;31.60;76.80;;;;;;5012596;28;20091;-82
2022/08/11 11:00:55;;;;;;;;;;;31.70;73.60;;;;;;5006796;28;20388;-81
2022/08/11 11:03:25;;;;;;;;;;;31.70;70.60;;;;;;5027571;28;19925;-82
2022/08/11 11:05:52;;;;;;;;;;;31.70;71.70;;;;;;5025096;28;19921;-80
2022/08/11 11:11:06;;;;;;;;;;;31.70;71.70;;;;;;5007690;28;20011;-81
2022/08/11 11:19:07;;;;;;;;;;;31.80;72.40;;;;;;5025797;28;20070;-81
2022/08/11 11:21:34;;;;;;;;;;;31.90;70.90;;;;;;4990165;28;19999;-81
2022/08/11 11:24:10;;;;;;;;;;;31.90;70.70;;;;;;5025246;28;19928;-79
2022/08/11 11:26:37;;;;;;;;;;;31.80;70.70;;;;;;5007853;28;20364;-81
2022/08/11 11:29:05;;;;;;;;;;;31.70;68.90;;;;;;5008277;28;20448;-81
2022/08/11 11:31:49;;;;;;;;;;;31.70;68.70;;;;;;5028255;28;19932;-81
2022/08/11 11:34:30;;;;;;;;;;;31.70;67.90;;;;;;5009728;28;20019;-80
2022/08/11 11:36:57;;;;;;;;;;;31.70;69.40;;;;;;5003043;28;20008;-81
2022/08/11 11:39:24;;;;;;;;;;;31.80;67.90;;;;;;4991822;28;19921;-80
2022/08/11 11:41:51;;;;;;;;;;;31.90;69.30;;;;;;5006043;28;19944;-78
2022/08/11 11:44:18;;;;;;;;;;;31.90;68.60;;;;;;5024339;28;20585;-81
2022/08/11 11:46:44;;;;;;;;;;;31.90;68.60;;;;;;5010205;28;19933;-80
2022/08/11 11:49:10;;;;;;;;;;;31.90;69.20;;;;;;5005900;28;19929;-83
2022/08/11 11:51:36;;;;;;;;;;;31.90;67.60;;;;;;5008103;28;19975;-80
2022/08/11 11:54:03;;;;;;;;;;;31.80;67.40;;;;;;5028774;28;20489;-78
2022/08/11 11:56:30;;;;;;;;;;;31.80;69.80;;;;;;5020650;28;19932;-80
2022/08/11 12:01:42;;;;;;;;;;;31.70;65.50;;;;;;5001941;28;19971;-79
2022/08/11 12:04:09;;;;;;;;;;;31.70;66.80;;;;;;4995809;28;19929;-77
2022/08/11 12:06:35;;;;;;;;;;;31.70;67.80;;;;;;4995056;28;19932;-79
2022/08/11 12:09:01;;;;;;;;;;;31.70;67.80;;;;;;4999858;28;19924;-80
2022/08/11 12:14:14;;;;;;;;;;;31.80;67.10;;;;;;5000743;28;19928;-80
2022/08/11 12:16:42;;;;;;;;;;;31.70;66.50;;;;;;4997383;28;20429;-83
2022/08/11 12:19:10;;;;;;;;;;;31.80;66.10;;;;;;4996559;28;19932;-81
2022/08/11 12:21:37;;;;;;;;;;;31.80;67.00;;;;;;4998457;28;20378;-79
2022/08/11 12:29:14;;;;;;;;;;;31.80;67.30;;;;;;4993969;28;19929;-82
2022/08/11 12:31:40;;;;;;;;;;;31.80;65.90;;;;;;4993944;28;20166;-80
2022/08/11 12:34:10;;;;;;;;;;;31.80;65.00;;;;;;5010126;28;19925;-80
2022/08/11 12:36:36;;;;;;;;;;;31.90;65.40;;;;;;5014599;28;19925;-81
2022/08/11 12:39:04;;;;;;;;;;;31.90;66.50;;;;;;4998971;28;20380;-79
2022/08/11 12:45:26;;;;;;;;;;;32.00;65.90;;;;;;5017055;28;19979;-80
2022/08/11 12:47:07;;;;;;;;;;;32.10;66.60;;;;;;5015815;28;20428;-80
2022/08/11 12:52:22;;;;;;;;;;;32.10;64.90;;;;;;4995674;28;21006;-79
2022/08/11 12:54:59;;;;;;;;;;;32.00;65.10;;;;;;4990753;28;20692;-75
2022/08/11 13:05:42;;;;;;;;;;;31.80;64.00;;;;;;4994327;28;19929;-78
2022/08/11 13:08:08;;;;;;;;;;;31.80;64.20;;;;;;4996559;28;19921;-78
2022/08/11 13:13:19;;;;;;;;;;;31.70;63.50;;;;;;4995153;28;19948;-79
2022/08/11 13:15:46;;;;;;;;;;;31.70;64.40;;;;;;4995904;28;20003;-79
2022/08/11 13:18:14;;;;;;;;;;;31.70;63.60;;;;;;4995314;28;19926;-77
2022/08/11 13:20:43;;;;;;;;;;;31.70;63.70;;;;;;4974686;28;20185;-77
2022/08/11 13:23:09;;;;;;;;;;;31.70;64.10;;;;;;4980788;28;20063;-76
2022/08/11 13:25:36;;;;;;;;;;;31.80;63.30;;;;;;4995283;28;19928;-78
2022/08/11 13:28:06;;;;;;;;;;;31.80;63.50;;;;;;4992300;28;19944;-80
2022/08/11 13:33:17;;;;;;;;;;;31.80;64.10;;;;;;4999640;28;19964;-82
2022/08/11 13:35:44;;;;;;;;;;;31.90;64.00;;;;;;5012304;28;20570;-79
2022/08/11 13:38:13;;;;;;;;;;;31.90;64.10;;;;;;5010172;28;19995;-75
2022/08/11 13:40:39;;;;;;;;;;;31.90;63.80;;;;;;5011345;28;19925;-79
2022/08/11 13:43:05;;;;;;;;;;;31.90;63.30;;;;;;4991964;28;19925;-81
2022/08/11 13:45:32;;;;;;;;;;;31.80;64.10;;;;;;5013495;28;19929;-76
2022/08/11 13:47:58;;;;;;;;;;;31.70;63.70;;;;;;4995293;28;19939;-78
2022/08/11 13:51:29;;;;;;;;;;;31.70;63.50;;;;;;4996187;28;19931;-79
2022/08/11 13:53:11;;;;;;;;;;;31.70;64.40;;;;;;5014392;28;19929;-80
2022/08/11 13:55:39;;;;;;;;;;;31.70;63.20;;;;;;4998489;28;19979;-80
2022/08/11 13:58:07;;;;;;;;;;;31.70;64.70;;;;;;5012276;28;19925;-80
2022/08/11 14:00:32;;;;;;;;;;;31.60;63.70;;;;;;4978369;28;19929;-79
2022/08/11 14:02:58;;;;;;;;;;;31.60;63.10;;;;;;5011745;28;19933;-77
2022/08/11 14:05:28;;;;;;;;;;;31.50;64.40;;;;;;4997595;28;19925;-79
2022/08/11 14:08:06;;;;;;;;;;;31.40;63.80;;;;;;5013448;28;20467;-79
2022/08/11 14:10:33;;;;;;;;;;;31.20;63.60;;;;;;4980368;28;20333;-80
2022/08/11 14:15:51;;;;;;;;;;;31.00;62.40;;;;;;4992317;28;19926;-81
2022/08/11 14:18:18;;;;;;;;;;;30.90;61.40;;;;;;4993544;28;19925;-82
2022/08/11 14:23:52;;;;;;;;;;;30.80;62.50;;;;;;4993906;28;19949;-79
2022/08/11 14:26:25;;;;;;;;;;;30.80;62.20;;;;;;5001859;28;19929;-79
2022/08/11 14:29:12;;;;;;;;;;;30.80;63.30;;;;;;5011610;28;19967;-79
2022/08/11 14:31:45;;;;;;;;;;;30.80;63.40;;;;;;5004798;28;19931;-77
2022/08/11 14:34:13;;;;;;;;;;;30.80;63.20;;;;;;5010604;28;19992;-80
2022/08/11 14:36:40;;;;;;;;;;;30.80;63.50;;;;;;4992202;28;19931;-79
2022/08/11 14:39:11;;;;;;;;;;;30.80;63.20;;;;;;4991113;28;19987;-80
2022/08/11 14:47:13;;;;;;;;;;;30.80;62.80;;;;;;4994899;28;20591;-82
2022/08/11 14:49:39;;;;;;;;;;;30.70;63.00;;;;;;5007345;28;19967;-79
2022/08/11 14:52:13;;;;;;;;;;;30.60;63.80;;;;;;5004306;28;20366;-82
2022/08/11 14:57:27;;;;;;;;;;;30.60;63.40;;;;;;5021446;28;20012;-82
2022/08/11 14:59:54;;;;;;;;;;;30.50;63.20;;;;;;5018862;28;19929;-85
2022/08/11 15:05:24;;;;;;;;;;;30.40;63.00;;;;;;4940909;28;19967;-86
2022/08/11 15:07:51;;;;;;;;;;;30.30;65.30;;;;;;4925640;28;19930;-86
2022/08/11 15:10:17;;;;;;;;;;;30.20;66.20;;;;;;4964840;28;20374;-85
2022/08/11 15:12:43;;;;;;;;;;;30.00;66.40;;;;;;4995526;28;19933;-82
2022/08/11 15:17:56;;;;;;;;;;;29.70;67.30;;;;;;5012595;28;19924;-83
2022/08/11 15:25:59;;;;;;;;;;;29.30;67.80;;;;;;5011474;28;20409;-81
2022/08/11 15:39:30;;;;;;;;;;;28.70;68.00;;;;;;5026269;28;19931;-83
2022/08/11 15:47:33;;;;;;;;;;;28.40;68.20;;;;;;5006918;28;20125;-84
2022/08/11 15:50:00;;;;;;;;;;;28.30;68.30;;;;;;4990904;28;19968;-83
2022/08/11 15:52:29;;;;;;;;;;;28.20;68.60;;;;;;5004752;28;19971;-88
2022/08/11 15:54:58;;;;;;;;;;;28.20;69.00;;;;;;5006820;28;19936;-81
2022/08/11 16:05:20;;;;;;;;;;;28.00;70.10;;;;;;5004053;28;20052;-83
2022/08/11 16:07:47;;;;;;;;;;;28.00;70.50;;;;;;5022869;28;20341;-80
2022/08/11 16:10:20;;;;;;;;;;;27.90;70.70;;;;;;4989818;28;19925;-82
2022/08/11 16:18:21;;;;;;;;;;;27.80;71.40;;;;;;5003791;28;19971;-83
2022/08/11 16:20:49;;;;;;;;;;;27.70;71.50;;;;;;4999217;28;19925;-82
2022/08/11 16:23:15;;;;;;;;;;;27.70;71.50;;;;;;4999830;28;19932;-82
2022/08/11 16:25:41;;;;;;;;;;;27.60;71.60;;;;;;5022260;28;19925;-85
2022/08/11 16:28:08;;;;;;;;;;;27.50;71.40;;;;;;5003707;28;19971;-82
2022/08/11 16:30:35;;;;;;;;;;;27.50;71.80;;;;;;5002081;28;19929;-83
2022/08/11 16:33:03;;;;;;;;;;;27.40;72.00;;;;;;4986840;28;19932;-81
2022/08/11 16:38:34;;;;;;;;;;;27.30;72.80;;;;;;4999478;28;20279;-85
2022/08/11 16:41:08;;;;;;;;;;;27.20;73.00;;;;;;5022314;28;20370;-85
2022/08/11 16:49:16;;;;;;;;;;;27.00;72.30;;;;;;5012189;28;19922;-83
2022/08/11 16:51:43;;;;;;;;;;;26.90;72.90;;;;;;5008109;28;19984;-80
2022/08/11 16:54:08;;;;;;;;;;;26.80;73.50;;;;;;5002725;28;19925;-86
2022/08/11 16:56:54;;;;;;;;;;;26.70;73.60;;;;;;5005274;28;19948;-80
2022/08/11 16:59:25;;;;;;;;;;;26.70;74.20;;;;;;4989632;28;20279;-81
2022/08/11 17:01:52;;;;;;;;;;;26.70;74.30;;;;;;5002957;28;19925;-86
2022/08/11 17:18:38;;;;;;;;;;;26.30;75.60;;;;;;5018439;28;19977;-85
2022/08/11 17:21:02;;;;;;;;;;;26.30;76.00;;;;;;4997935;28;20146;-81
2022/08/11 17:23:51;;;;;;;;;;;26.20;76.20;;;;;;5007835;28;20484;-83
2022/08/11 17:26:18;;;;;;;;;;;26.10;76.30;;;;;;4996380;28;19925;-82
2022/08/11 17:28:45;;;;;;;;;;;26.10;76.60;;;;;;5022292;28;20006;-84
2022/08/11 17:36:43;;;;;;;;;;;25.90;77.90;;;;;;5012865;28;20008;-80
2022/08/11 17:39:10;;;;;;;;;;;25.80;78.60;;;;;;5002791;28;20534;-87
2022/08/11 17:49:50;;;;;;;;;;;25.60;80.30;;;;;;4997073;28;19929;-81
2022/08/11 18:00:30;;;;;;;;;;;25.20;82.70;;;;;;5050454;28;19909;-82
2022/08/11 18:05:44;;;;;;;;;;;25.10;84.10;;;;;;5027393;28;19906;-81
